createdAt,value
2018-06-18T00:01:01.174Z,18.02
2018-06-18T00:04:02.736Z,18.00
2018-06-18T00:07:06.461Z,17.94
2018-06-18T00:10:05.901Z,17.93
2018-06-18T00:12:39.053Z,17.90
2018-06-18T00:15:11.259Z,17.92
2018-06-18T00:17:43.491Z,17.94
2018-06-18T00:20:17.567Z,17.97
2018-06-18T00:22:49.658Z,17.93
2018-06-18T00:25:22.422Z,17.90
2018-06-18T00:27:54.242Z,17.91
2018-06-18T00:30:27.905Z,17.94
2018-06-18T00:32:59.819Z,18.00
2018-06-18T00:35:31.190Z,18.02
2018-06-18T00:38:03.217Z,17.99
2018-06-18T00:40:35.451Z,17.97
2018-06-18T00:43:07.491Z,17.93
2018-06-18T00:45:39.431Z,17.90
2018-06-18T00:48:12.060Z,17.84
2018-06-18T00:50:44.087Z,17.77
2018-06-18T00:53:16.584Z,17.74
2018-06-18T00:55:58.199Z,17.69
2018-06-18T00:58:31.406Z,17.65
2018-06-18T01:01:05.792Z,17.61
2018-06-18T01:03:38.516Z,17.59
2018-06-18T01:06:10.395Z,17.58
2018-06-18T01:08:43.179Z,17.60
2018-06-18T01:11:17.063Z,17.59
2018-06-18T01:13:49.387Z,17.55
2018-06-18T01:16:22.226Z,17.53
2018-06-18T01:18:54.105Z,17.50
2018-06-18T01:21:26.523Z,17.51
2018-06-18T01:24:03.953Z,17.52
2018-06-18T01:26:35.917Z,17.47
2018-06-18T01:29:08.244Z,17.44
2018-06-18T01:31:40.583Z,17.43
2018-06-18T01:34:18.394Z,17.41
2018-06-18T01:36:50.974Z,17.37
2018-06-18T01:39:25.774Z,17.31
2018-06-18T01:41:58.492Z,17.25
2018-06-18T01:44:30.685Z,17.23
2018-06-18T01:47:02.623Z,17.15
2018-06-18T01:49:35.551Z,15.85
2018-06-18T01:52:08.165Z,17.08
2018-06-18T01:54:39.666Z,17.09
2018-06-18T01:57:11.906Z,17.10
2018-06-18T01:59:43.655Z,17.09
2018-06-18T02:02:15.568Z,17.02
2018-06-18T02:04:47.105Z,16.96
2018-06-18T02:07:18.733Z,16.92
2018-06-18T02:09:50.316Z,16.83
2018-06-18T02:12:22.949Z,16.74
2018-06-18T02:14:54.837Z,16.69
2018-06-18T02:17:26.661Z,16.59
2018-06-18T02:19:58.453Z,16.51
2018-06-18T02:22:30.487Z,16.46
2018-06-18T02:25:02.539Z,16.43
2018-06-18T02:27:39.840Z,16.39
2018-06-18T02:30:16.515Z,16.33
2018-06-18T02:32:53.822Z,16.31
2018-06-18T02:35:30.368Z,16.24
2018-06-18T02:38:07.266Z,16.19
2018-06-18T02:40:43.375Z,16.23
2018-06-18T02:43:15.843Z,16.30
2018-06-18T02:45:48.228Z,16.38
2018-06-18T02:48:20.676Z,16.42
2018-06-18T02:50:53.895Z,16.46
2018-06-18T02:53:25.783Z,16.53
2018-06-18T02:55:58.161Z,16.52
2018-06-18T02:58:30.646Z,16.56
2018-06-18T03:01:03.889Z,16.56
2018-06-18T03:03:35.517Z,16.59
2018-06-18T03:06:08.143Z,16.63
2018-06-18T03:08:39.891Z,16.65
2018-06-18T03:11:11.659Z,16.64
2018-06-18T03:13:43.715Z,16.67
2018-06-18T03:16:15.780Z,16.66
2018-06-18T03:18:52.349Z,16.71
2018-06-18T03:21:28.874Z,16.79
2018-06-18T03:24:06.367Z,16.79
2018-06-18T03:26:43.020Z,16.83
2018-06-18T03:29:17.026Z,16.89
2018-06-18T03:31:48.810Z,16.96
2018-06-18T03:34:21.050Z,16.98
2018-06-18T03:36:53.739Z,17.00
2018-06-18T03:39:25.267Z,17.04
2018-06-18T03:41:57.254Z,16.99
2018-06-18T03:44:35.048Z,16.99
2018-06-18T03:47:16.350Z,17.04
2018-06-18T03:49:48.282Z,17.08
2018-06-18T03:52:21.629Z,17.05
2018-06-18T03:54:54.878Z,17.03
2018-06-18T03:57:27.608Z,17.04
2018-06-18T03:59:59.621Z,17.06
2018-06-18T04:02:48.001Z,16.99
2018-06-18T04:05:25.616Z,16.72
2018-06-18T04:08:00.616Z,17.01
2018-06-18T04:10:39.059Z,17.02
2018-06-18T04:13:11.237Z,16.96
2018-06-18T04:15:44.928Z,17.01
2018-06-18T04:18:16.450Z,17.02
2018-06-18T04:20:51.503Z,17.00
2018-06-18T04:23:23.375Z,17.07
2018-06-18T04:25:54.969Z,17.14
2018-06-18T04:28:27.624Z,17.17
2018-06-18T04:30:59.454Z,17.24
2018-06-18T04:33:32.032Z,17.31
2018-06-18T04:36:04.327Z,17.29
2018-06-18T04:38:36.318Z,17.29
2018-06-18T04:41:08.367Z,17.34
2018-06-18T04:43:45.084Z,17.38
2018-06-18T04:46:22.568Z,17.41
2018-06-18T04:48:58.700Z,17.31
2018-06-18T04:51:30.702Z,17.23
2018-06-18T04:54:05.423Z,17.28
2018-06-18T04:56:37.271Z,17.45
2018-06-18T04:59:09.198Z,17.65
2018-06-18T05:01:40.495Z,17.90
2018-06-18T05:04:13.647Z,18.07
2018-06-18T05:06:45.324Z,18.21
2018-06-18T05:09:24.677Z,18.16
2018-06-18T05:11:57.521Z,17.96
2018-06-18T05:14:28.888Z,16.32
2018-06-18T05:17:01.823Z,17.34
2018-06-18T05:19:33.867Z,17.23
2018-06-18T05:22:05.603Z,17.22
2018-06-18T05:24:37.944Z,17.24
2018-06-18T05:27:12.631Z,17.21
2018-06-18T05:29:44.792Z,17.21
2018-06-18T05:32:16.838Z,17.25
2018-06-18T05:34:48.681Z,17.29
2018-06-18T05:37:43.068Z,17.41
2018-06-18T05:40:14.962Z,17.57
2018-06-18T05:42:47.257Z,17.71
2018-06-18T05:45:18.942Z,17.92
2018-06-18T05:47:50.641Z,18.24
2018-06-18T05:50:22.671Z,18.78
2018-06-18T05:52:53.941Z,19.31
2018-06-18T05:55:26.055Z,19.73
2018-06-18T05:57:57.541Z,19.95
2018-06-18T06:00:29.840Z,20.07
2018-06-18T06:03:01.991Z,19.97
2018-06-18T06:05:33.669Z,20.08
2018-06-18T06:08:06.751Z,20.22
2018-06-18T06:10:38.935Z,20.01
2018-06-18T06:19:39.903Z,19.83
2018-06-18T06:22:11.178Z,20.22
2018-06-18T06:24:44.344Z,20.37
2018-06-18T06:27:16.300Z,20.65
2018-06-18T06:29:48.182Z,20.93
2018-06-18T06:32:19.884Z,20.98
2018-06-18T06:35:06.434Z,20.85
2018-06-18T06:37:38.566Z,21.04
2018-06-18T06:40:10.940Z,21.23
2018-06-18T06:42:42.832Z,21.46
2018-06-18T06:45:15.861Z,21.40
2018-06-18T06:47:48.051Z,21.37
2018-06-18T06:50:22.205Z,21.52
2018-06-18T06:52:55.478Z,21.37
2018-06-18T06:55:27.894Z,21.42
2018-06-18T06:57:59.427Z,21.42
2018-06-18T07:00:31.560Z,21.69
2018-06-18T07:03:03.572Z,21.84
2018-06-18T07:05:35.879Z,21.63
2018-06-18T07:08:07.630Z,21.64
2018-06-18T07:10:40.633Z,21.48
2018-06-18T07:13:12.810Z,21.58
2018-06-18T07:15:43.999Z,21.94
2018-06-18T07:18:15.950Z,22.21
2018-06-18T07:20:47.577Z,21.84
2018-06-18T07:23:19.004Z,21.54
2018-06-18T07:25:52.250Z,21.60
2018-06-18T07:28:23.950Z,21.39
2018-06-18T07:30:56.214Z,21.74
2018-06-18T07:33:28.884Z,22.11
2018-06-18T07:36:02.030Z,22.44
2018-06-18T07:38:34.108Z,22.48
2018-06-18T07:41:06.833Z,22.37
2018-06-18T07:43:38.947Z,22.25
2018-06-18T07:46:10.467Z,22.46
2018-06-18T07:48:41.718Z,22.47
2018-06-18T07:51:13.157Z,22.29
2018-06-18T07:53:44.361Z,22.29
2018-06-18T07:56:16.198Z,22.44
2018-06-18T07:58:48.196Z,23.11
2018-06-18T08:01:20.503Z,23.49
2018-06-18T08:03:51.994Z,23.53
2018-06-18T08:06:24.002Z,23.53
2018-06-18T08:08:56.906Z,23.47
2018-06-18T08:11:28.512Z,23.21
2018-06-18T08:14:00.343Z,22.35
2018-06-18T08:16:32.661Z,22.28
2018-06-18T08:19:04.179Z,22.49
2018-06-18T08:21:36.387Z,22.59
2018-06-18T08:24:08.507Z,22.66
2018-06-18T08:26:40.817Z,22.99
2018-06-18T08:29:12.139Z,23.44
2018-06-18T08:31:44.096Z,23.96
2018-06-18T08:34:15.452Z,24.04
2018-06-18T08:36:47.276Z,23.77
2018-06-18T08:39:20.605Z,24.07
2018-06-18T08:41:51.923Z,24.30
2018-06-18T08:44:23.876Z,24.75
2018-06-18T08:46:55.475Z,24.98
2018-06-18T08:49:26.871Z,25.22
2018-06-18T08:52:03.135Z,25.40
2018-06-18T08:54:40.143Z,25.25
2018-06-18T08:57:16.546Z,24.78
2018-06-18T08:59:52.613Z,24.49
2018-06-18T09:02:33.364Z,23.01
2018-06-18T09:05:14.759Z,24.13
2018-06-18T09:07:51.848Z,23.53
2018-06-18T09:10:23.600Z,23.93
2018-06-18T09:12:56.660Z,24.10
2018-06-18T09:15:28.408Z,24.10
2018-06-18T09:17:59.763Z,23.75
2018-06-18T09:20:32.721Z,21.56
2018-06-18T09:23:04.268Z,23.68
2018-06-18T09:25:35.818Z,23.88
2018-06-18T09:28:07.827Z,23.89
2018-06-18T09:30:39.026Z,23.77
2018-06-18T09:33:10.240Z,23.64
2018-06-18T09:35:42.238Z,23.36
2018-06-18T09:38:14.447Z,22.32
2018-06-18T09:40:46.573Z,23.41
2018-06-18T09:43:18.198Z,23.35
2018-06-18T09:45:49.615Z,22.76
2018-06-18T09:48:21.394Z,22.72
2018-06-18T09:50:57.159Z,22.86
2018-06-18T09:53:33.532Z,23.02
2018-06-18T09:56:09.449Z,23.20
2018-06-18T09:58:45.411Z,23.37
2018-06-18T10:01:34.178Z,23.63
2018-06-18T10:04:06.950Z,23.74
2018-06-18T10:06:39.636Z,23.99
2018-06-18T10:09:12.587Z,24.10
2018-06-18T10:11:44.911Z,24.22
2018-06-18T10:14:16.659Z,24.09
2018-06-18T10:16:49.566Z,24.12
2018-06-18T10:19:21.722Z,23.73
2018-06-18T10:21:53.705Z,23.26
2018-06-18T10:24:26.004Z,23.04
2018-06-18T10:26:57.947Z,23.44
2018-06-18T10:29:29.899Z,23.13
2018-06-18T10:32:01.282Z,22.68
2018-06-18T10:34:37.593Z,22.47
2018-06-18T10:37:13.823Z,22.81
2018-06-18T10:39:49.667Z,23.24
2018-06-18T10:42:26.008Z,23.57
2018-06-18T10:44:58.293Z,23.60
2018-06-18T10:47:30.698Z,23.36
2018-06-18T10:50:02.427Z,23.33
2018-06-18T10:52:33.708Z,23.50
2018-06-18T10:55:06.169Z,23.65
2018-06-18T10:57:38.132Z,23.74
2018-06-18T11:00:11.762Z,23.74
2018-06-18T11:02:43.287Z,24.02
2018-06-18T11:05:16.076Z,24.24
2018-06-18T11:07:47.272Z,24.96
2018-06-18T11:10:20.422Z,25.29
2018-06-18T11:12:51.751Z,25.41
2018-06-18T11:15:23.523Z,25.01
2018-06-18T11:17:59.379Z,25.48
2018-06-18T11:20:35.405Z,25.69
2018-06-18T11:23:11.968Z,25.56
2018-06-18T11:25:48.433Z,25.44
2018-06-18T11:28:20.123Z,25.34
2018-06-18T11:30:51.524Z,24.98
2018-06-18T11:33:22.868Z,24.54
2018-06-18T11:35:54.514Z,25.13
2018-06-18T11:38:25.802Z,25.86
2018-06-18T11:40:57.384Z,26.41
2018-06-18T11:43:28.881Z,26.43
2018-06-18T11:46:00.200Z,26.78
2018-06-18T11:48:33.787Z,27.06
2018-06-18T11:51:05.242Z,27.32
2018-06-18T11:53:37.401Z,26.82
2018-06-18T11:56:08.841Z,26.28
2018-06-18T11:58:45.435Z,26.18
2018-06-18T12:01:21.637Z,26.05
2018-06-18T12:03:57.283Z,26.62
2018-06-18T12:06:35.323Z,26.95
2018-06-18T12:09:14.196Z,27.00
2018-06-18T12:11:47.402Z,27.01
2018-06-18T12:14:52.189Z,26.98
2018-06-18T12:17:24.748Z,27.09
2018-06-18T12:20:27.903Z,26.92
2018-06-18T12:23:29.426Z,26.48
2018-06-18T12:26:01.617Z,26.17
2018-06-18T12:28:35.152Z,26.30
2018-06-18T12:31:07.574Z,26.68
2018-06-18T12:33:40.021Z,26.28
2018-06-18T12:36:13.024Z,26.07
2018-06-18T12:38:47.664Z,25.77
2018-06-18T12:41:24.561Z,25.72
2018-06-18T12:44:00.458Z,25.98
2018-06-18T12:46:36.979Z,25.98
2018-06-18T12:49:14.220Z,25.84
2018-06-18T12:51:50.781Z,26.34
2018-06-18T12:54:27.820Z,26.42
2018-06-18T12:57:04.556Z,26.43
2018-06-18T12:59:40.464Z,26.38
2018-06-18T13:02:15.321Z,26.60
2018-06-18T13:04:53.038Z,26.34
2018-06-18T13:07:24.956Z,26.21
2018-06-18T13:09:57.921Z,26.12
2018-06-18T13:12:29.827Z,26.04
2018-06-18T13:15:01.069Z,25.78
2018-06-18T13:17:34.842Z,25.77
2018-06-18T13:20:06.580Z,25.86
2018-06-18T13:22:39.079Z,24.81
2018-06-18T13:25:10.518Z,25.59
2018-06-18T13:27:46.507Z,25.54
2018-06-18T13:30:18.673Z,25.53
2018-06-18T13:32:54.501Z,25.37
2018-06-18T13:35:29.678Z,25.69
2018-06-18T13:38:05.384Z,25.50
2018-06-18T13:40:45.262Z,25.26
2018-06-18T13:43:21.923Z,25.28
2018-06-18T13:47:59.433Z,25.41
2018-06-18T13:50:31.058Z,25.55
2018-06-18T13:53:02.974Z,25.67
2018-06-18T13:55:34.845Z,25.76
2018-06-18T13:58:08.540Z,25.76
2018-06-18T14:00:40.410Z,26.03
2018-06-18T14:03:12.314Z,25.63
2018-06-18T14:05:44.095Z,25.20
2018-06-18T14:08:15.684Z,24.92
2018-06-18T14:10:47.902Z,24.92
2018-06-18T14:13:19.325Z,25.04
2018-06-18T14:15:50.654Z,25.61
2018-06-18T14:18:23.267Z,25.84
2018-06-18T14:20:55.001Z,25.82
2018-06-18T14:23:26.665Z,25.99
2018-06-18T14:25:58.533Z,25.91
2018-06-18T14:28:32.229Z,26.40
2018-06-18T14:32:11.923Z,26.56
2018-06-18T14:34:56.485Z,27.12
2018-06-18T14:37:33.174Z,26.98
2018-06-18T14:40:21.156Z,26.65
2018-06-18T14:42:53.443Z,26.87
2018-06-18T14:45:24.890Z,26.61
2018-06-18T14:47:57.626Z,26.22
2018-06-18T14:50:30.309Z,26.28
2018-06-18T14:53:02.262Z,26.37
2018-06-18T14:55:34.209Z,26.60
2018-06-18T14:58:06.641Z,27.02
2018-06-18T15:00:40.797Z,27.85
2018-06-18T15:03:15.593Z,28.26
2018-06-18T15:05:48.880Z,28.04
2018-06-18T15:08:24.279Z,27.51
2018-06-18T15:11:01.351Z,27.88
2018-06-18T15:13:35.831Z,29.16
2018-06-18T15:16:18.017Z,30.48
2018-06-18T15:18:50.362Z,30.90
2018-06-18T15:21:22.925Z,31.11
2018-06-18T15:23:55.405Z,31.08
2018-06-18T15:26:27.840Z,30.95
2018-06-18T15:28:59.802Z,29.93
2018-06-18T15:31:32.072Z,28.64
2018-06-18T15:34:04.096Z,28.27
2018-06-18T15:36:35.487Z,28.38
2018-06-18T15:39:11.209Z,27.86
2018-06-18T15:41:48.702Z,28.94
2018-06-18T15:44:21.902Z,28.74
2018-06-18T15:46:56.522Z,28.26
2018-06-18T15:49:29.557Z,28.17
2018-06-18T15:52:02.429Z,27.47
2018-06-18T15:54:35.230Z,27.17
2018-06-18T15:57:08.404Z,27.99
2018-06-18T15:59:41.651Z,29.42
2018-06-18T16:02:15.400Z,29.60
2018-06-18T16:04:49.112Z,29.61
2018-06-18T16:07:26.505Z,29.54
2018-06-18T16:09:59.731Z,30.50
2018-06-18T16:12:32.560Z,31.49
2018-06-18T16:15:05.015Z,31.20
2018-06-18T16:17:36.644Z,31.38
2018-06-18T16:20:11.034Z,31.69
2018-06-18T16:22:44.947Z,31.22
2018-06-18T16:25:17.483Z,31.17
2018-06-18T16:27:49.352Z,32.27
2018-06-18T16:30:22.492Z,32.94
2018-06-18T16:32:55.340Z,32.96
2018-06-18T16:35:27.422Z,33.08
2018-06-18T16:37:59.058Z,33.53
2018-06-18T16:40:31.897Z,33.31
2018-06-18T16:43:05.182Z,32.50
2018-06-18T16:45:38.785Z,33.17
2018-06-18T16:48:13.051Z,34.11
2018-06-18T16:50:45.615Z,33.95
2018-06-18T16:53:18.151Z,33.62
2018-06-18T16:55:50.779Z,32.08
2018-06-18T16:58:22.854Z,32.37
2018-06-18T17:00:55.560Z,33.01
2018-06-18T17:03:27.294Z,32.99
2018-06-18T17:05:59.661Z,33.62
2018-06-18T17:08:31.292Z,33.00
2018-06-18T17:11:02.824Z,33.31
2018-06-18T17:13:34.608Z,33.38
2018-06-18T17:16:06.418Z,33.65
2018-06-18T17:18:38.471Z,33.35
2018-06-18T17:21:09.851Z,33.50
2018-06-18T17:23:41.531Z,33.34
2018-06-18T17:26:13.693Z,33.40
2018-06-18T17:28:44.935Z,33.12
2018-06-18T17:31:16.485Z,32.47
2018-06-18T17:33:48.211Z,32.66
2018-06-18T17:36:19.759Z,33.25
2018-06-18T17:38:51.566Z,33.31
2018-06-18T17:41:23.222Z,33.10
2018-06-18T17:43:54.559Z,33.10
2018-06-18T17:46:26.194Z,33.67
2018-06-18T17:48:57.487Z,32.32
2018-06-18T17:51:29.197Z,31.46
2018-06-18T17:54:00.835Z,29.64
2018-06-18T17:56:32.586Z,28.09
2018-06-18T17:59:08.672Z,26.36
2018-06-18T18:01:40.082Z,25.46
2018-06-18T18:04:11.973Z,24.87
2018-06-18T18:06:43.786Z,24.63
2018-06-18T18:09:15.311Z,22.61
2018-06-18T18:11:47.182Z,24.07
2018-06-18T18:14:18.899Z,23.80
2018-06-18T18:16:50.311Z,23.57
2018-06-18T18:19:21.711Z,23.42
2018-06-18T18:21:53.821Z,23.29
2018-06-18T18:24:25.663Z,23.14
2018-06-18T18:26:58.410Z,23.03
2018-06-18T18:29:30.100Z,22.89
2018-06-18T18:32:01.663Z,22.82
2018-06-18T18:34:33.516Z,22.67
2018-06-18T18:37:06.622Z,22.54
2018-06-18T18:39:38.515Z,22.46
2018-06-18T18:42:10.798Z,22.34
2018-06-18T18:44:42.751Z,22.26
2018-06-18T18:47:15.784Z,22.19
2018-06-18T18:49:48.691Z,22.13
2018-06-18T18:52:20.687Z,22.08
2018-06-18T18:56:03.395Z,21.97
2018-06-18T18:59:41.349Z,21.90
2018-06-18T19:02:15.263Z,21.79
2018-06-18T19:04:58.415Z,21.73
2018-06-18T19:07:47.529Z,21.65
2018-06-18T19:10:26.328Z,21.57
2018-06-18T19:13:04.088Z,21.50
2018-06-18T19:15:36.480Z,21.43
2018-06-18T19:18:11.501Z,21.35
2018-06-18T19:20:55.672Z,21.29
2018-06-18T19:23:28.412Z,21.18
2018-06-18T19:26:00.638Z,21.13
2018-06-18T19:28:37.067Z,21.08
2018-06-18T19:31:20.449Z,21.02
2018-06-18T19:34:01.420Z,20.96
2018-06-18T19:36:34.370Z,20.91
2018-06-18T19:39:08.253Z,20.87
2018-06-18T19:41:40.207Z,20.82
2018-06-18T19:44:15.063Z,20.77
2018-06-18T19:47:03.359Z,20.72
2018-06-18T19:49:35.166Z,20.63
2018-06-18T19:52:07.010Z,20.55
2018-06-18T19:54:46.909Z,20.44
2018-06-18T19:57:19.201Z,20.39
2018-06-18T19:59:51.477Z,20.34
2018-06-18T20:02:23.931Z,20.31
2018-06-18T20:04:58.422Z,20.28
2018-06-18T20:07:34.415Z,20.28
2018-06-18T20:10:09.415Z,20.29
2018-06-18T20:12:48.726Z,20.30
2018-06-18T20:15:24.137Z,20.29
2018-06-18T20:17:58.014Z,20.32
2018-06-18T20:20:31.182Z,20.32
2018-06-18T20:23:02.949Z,20.29
2018-06-18T20:25:43.707Z,20.24
2018-06-18T20:28:16.557Z,19.03
2018-06-18T20:30:48.262Z,20.20
2018-06-18T20:33:23.619Z,20.16
2018-06-18T20:36:03.708Z,20.11
2018-06-18T20:38:38.869Z,19.64
2018-06-18T20:41:10.973Z,20.07
2018-06-18T20:44:06.320Z,20.08
2018-06-18T20:46:40.696Z,20.10
2018-06-18T20:49:14.495Z,20.07
2018-06-18T20:51:46.672Z,20.05
2018-06-18T20:54:23.570Z,20.06
2018-06-18T20:56:55.364Z,19.97
2018-06-18T20:59:32.223Z,19.92
2018-06-18T21:02:03.987Z,19.87
2018-06-18T21:04:36.166Z,19.84
2018-06-18T21:07:07.691Z,19.76
2018-06-18T21:09:39.625Z,19.73
2018-06-18T21:12:11.547Z,19.63
2018-06-18T21:14:43.617Z,19.56
2018-06-18T21:17:16.653Z,19.47
2018-06-18T21:19:47.882Z,18.21
2018-06-18T21:22:20.747Z,19.37
2018-06-18T21:24:54.119Z,19.32
2018-06-18T21:27:27.938Z,19.28
2018-06-18T21:30:00.130Z,19.29
2018-06-18T21:32:31.935Z,19.24
2018-06-18T21:35:04.077Z,19.22
2018-06-18T21:37:35.684Z,19.23
2018-06-18T21:40:08.018Z,19.24
2018-06-18T21:42:40.315Z,19.26
2018-06-18T21:45:21.029Z,19.27
2018-06-18T21:47:52.857Z,19.30
2018-06-18T21:50:24.835Z,19.28
2018-06-18T21:52:56.694Z,19.28
2018-06-18T21:55:28.150Z,19.24
2018-06-18T21:58:01.584Z,18.22
2018-06-18T22:00:38.853Z,19.16
2018-06-18T22:03:10.895Z,19.11
2018-06-18T22:05:42.741Z,19.04
2018-06-18T22:08:16.768Z,19.02
2018-06-18T22:10:48.598Z,18.95
2018-06-18T22:13:20.092Z,18.90
2018-06-18T22:15:51.504Z,18.89
2018-06-18T22:18:23.237Z,18.86
2018-06-18T22:20:54.552Z,18.83
2018-06-18T22:23:25.891Z,18.75
2018-06-18T22:25:57.512Z,18.66
2018-06-18T22:28:34.330Z,17.73
2018-06-18T22:31:06.587Z,18.51
2018-06-18T22:33:38.440Z,18.44
2018-06-18T22:36:10.240Z,18.38
2018-06-18T22:38:41.496Z,18.29
2018-06-18T22:41:13.110Z,18.25
2018-06-18T22:43:45.060Z,18.17
2018-06-18T22:46:16.520Z,18.08
2018-06-18T22:48:47.840Z,18.02
2018-06-18T22:51:20.283Z,17.99
2018-06-18T22:53:51.725Z,17.92
2018-06-18T22:56:23.458Z,17.88
2018-06-18T22:58:54.839Z,17.85
2018-06-18T23:01:26.474Z,17.84
2018-06-18T23:03:58.651Z,17.79
2018-06-18T23:06:30.344Z,17.72
2018-06-18T23:09:04.937Z,17.64
2018-06-18T23:11:36.691Z,17.58
2018-06-18T23:14:12.760Z,16.29
2018-06-18T23:16:44.898Z,17.56
2018-06-18T23:19:16.317Z,17.53
2018-06-18T23:21:47.648Z,17.50
2018-06-18T23:24:19.200Z,17.44
2018-06-18T23:26:50.572Z,17.41
2018-06-18T23:29:22.856Z,17.41
2018-06-18T23:31:55.021Z,17.41
2018-06-18T23:34:26.499Z,17.41
2018-06-18T23:36:58.861Z,17.37
2018-06-18T23:39:30.936Z,17.34
2018-06-18T23:42:02.946Z,17.34
2018-06-18T23:44:34.622Z,17.28
2018-06-18T23:47:06.640Z,17.25
2018-06-18T23:49:38.338Z,17.21
2018-06-18T23:52:09.822Z,17.19
2018-06-18T23:54:42.166Z,17.16
2018-06-18T23:57:14.057Z,17.14
2018-06-18T23:59:45.788Z,17.15
